sensor_id;sensor_type;location;lat;lon;timestamp;pressure;altitude;pressure_sealevel;temperature;humidity
6144;BME280;3103;49.492;8.474;2024-02-28T00:01:02;100648.34;;;8.17;77.02
6144;BME280;3103;49.492;8.474;2024-02-28T00:03:28;100648.63;;;8.33;76.45
6144;BME280;3103;49.492;8.474;2024-02-28T00:05:58;100642.59;;;8.45;76.01
6144;BME280;3103;49.492;8.474;2024-02-28T00:08:25;100650.00;;;8.43;75.65
6144;BME280;3103;49.492;8.474;2024-02-28T00:10:51;100649.41;;;8.41;75.99
6144;BME280;3103;49.492;8.474;2024-02-28T00:13:18;100651.06;;;8.10;76.90
6144;BME280;3103;49.492;8.474;2024-02-28T00:15:47;100657.28;;;8.29;76.52
6144;BME280;3103;49.492;8.474;2024-02-28T00:18:14;100653.91;;;8.15;77.47
6144;BME280;3103;49.492;8.474;2024-02-28T00:20:41;100649.44;;;8.09;77.66
6144;BME280;3103;49.492;8.474;2024-02-28T00:23:10;100653.06;;;8.21;77.42
6144;BME280;3103;49.492;8.474;2024-02-28T00:25:37;100652.97;;;8.28;76.96
6144;BME280;3103;49.492;8.474;2024-02-28T00:28:04;100645.47;;;8.18;77.26
6144;BME280;3103;49.492;8.474;2024-02-28T00:30:31;100654.84;;;8.27;76.93
6144;BME280;3103;49.492;8.474;2024-02-28T00:33:03;100656.28;;;8.05;77.51
6144;BME280;3103;49.492;8.474;2024-02-28T00:35:31;100657.31;;;8.04;77.69
6144;BME280;3103;49.492;8.474;2024-02-28T00:38:00;100660.56;;;8.06;77.93
6144;BME280;3103;49.492;8.474;2024-02-28T00:40:27;100667.66;;;7.94;78.70
6144;BME280;3103;49.492;8.474;2024-02-28T00:42:55;100658.41;;;8.21;77.34
6144;BME280;3103;49.492;8.474;2024-02-28T00:45:22;100671.28;;;8.06;77.65
6144;BME280;3103;49.492;8.474;2024-02-28T00:47:49;100668.66;;;8.24;77.44
6144;BME280;3103;49.492;8.474;2024-02-28T00:50:16;100670.38;;;8.19;77.44
6144;BME280;3103;49.492;8.474;2024-02-28T00:52:42;100667.94;;;8.11;77.48
6144;BME280;3103;49.492;8.474;2024-02-28T00:55:09;100665.06;;;8.12;78.63
6144;BME280;3103;49.492;8.474;2024-02-28T00:57:36;100661.41;;;8.07;78.13
6144;BME280;3103;49.492;8.474;2024-02-28T01:00:03;100662.25;;;8.00;78.67
6144;BME280;3103;49.492;8.474;2024-02-28T01:02:32;100671.88;;;8.08;78.24
6144;BME280;3103;49.492;8.474;2024-02-28T01:04:58;100674.78;;;8.07;78.36
6144;BME280;3103;49.492;8.474;2024-02-28T01:07:26;100677.53;;;7.93;79.00
6144;BME280;3103;49.492;8.474;2024-02-28T01:09:52;100684.09;;;7.97;nan
6144;BME280;3103;49.492;8.474;2024-02-28T01:12:19;100681.28;;;7.86;79.61
6144;BME280;3103;49.492;8.474;2024-02-28T01:14:46;100680.00;;;7.63;80.49
6144;BME280;3103;49.492;8.474;2024-02-28T01:17:14;100696.63;;;7.65;80.46
6144;BME280;3103;49.492;8.474;2024-02-28T01:19:40;100685.44;;;7.82;79.54
6144;BME280;3103;49.492;8.474;2024-02-28T01:22:07;100689.38;;;7.79;80.18
6144;BME280;3103;49.492;8.474;2024-02-28T01:24:35;100693.97;;;7.65;80.40
6144;BME280;3103;49.492;8.474;2024-02-28T01:27:03;100684.09;;;7.66;80.18
6144;BME280;3103;49.492;8.474;2024-02-28T01:29:30;100690.63;;;7.77;79.39
6144;BME280;3103;49.492;8.474;2024-02-28T01:31:57;100696.47;;;7.60;80.31
6144;BME280;3103;49.492;8.474;2024-02-28T01:34:24;100699.47;;;7.77;79.55
6144;BME280;3103;49.492;8.474;2024-02-28T01:36:51;100689.28;;;7.61;79.69
6144;BME280;3103;49.492;8.474;2024-02-28T01:39:18;100690.09;;;7.61;79.81
6144;BME280;3103;49.492;8.474;2024-02-28T01:41:54;100683.88;;;7.67;80.03
6144;BME280;3103;49.492;8.474;2024-02-28T01:44:22;100690.69;;;7.63;80.35
6144;BME280;3103;49.492;8.474;2024-02-28T01:46:49;100699.09;;;7.67;79.60
6144;BME280;3103;49.492;8.474;2024-02-28T01:49:16;100699.69;;;7.69;79.56
6144;BME280;3103;49.492;8.474;2024-02-28T01:51:44;100705.72;;;7.58;79.61
6144;BME280;3103;49.492;8.474;2024-02-28T01:54:13;100701.19;;;7.58;80.45
6144;BME280;3103;49.492;8.474;2024-02-28T01:56:41;100709.47;;;7.50;81.08
6144;BME280;3103;49.492;8.474;2024-02-28T01:59:09;100718.41;;;7.69;80.31
6144;BME280;3103;49.492;8.474;2024-02-28T02:01:37;100719.06;;;7.64;79.96
6144;BME280;3103;49.492;8.474;2024-02-28T02:04:04;100718.53;;;7.49;81.03
6144;BME280;3103;49.492;8.474;2024-02-28T02:06:32;100712.75;;;7.52;81.01
6144;BME280;3103;49.492;8.474;2024-02-28T02:09:01;100721.00;;;7.44;81.66
6144;BME280;3103;49.492;8.474;2024-02-28T02:11:28;100721.19;;;7.49;80.91
6144;BME280;3103;49.492;8.474;2024-02-28T02:13:55;100731.28;;;7.47;81.25
6144;BME280;3103;49.492;8.474;2024-02-28T02:16:23;100722.22;;;7.48;80.80
6144;BME280;3103;49.492;8.474;2024-02-28T02:18:53;100724.09;;;7.41;81.13
6144;BME280;3103;49.492;8.474;2024-02-28T02:21:23;100716.13;;;7.28;82.29
6144;BME280;3103;49.492;8.474;2024-02-28T02:23:51;100734.44;;;7.24;82.00
6144;BME280;3103;49.492;8.474;2024-02-28T02:26:18;100723.56;;;7.12;82.64
6144;BME280;3103;49.492;8.474;2024-02-28T02:28:45;100731.13;;;7.35;82.02
6144;BME280;3103;49.492;8.474;2024-02-28T02:31:13;100731.34;;;7.34;81.24
6144;BME280;3103;49.492;8.474;2024-02-28T02:33:40;100730.53;;;7.27;81.50
6144;BME280;3103;49.492;8.474;2024-02-28T02:36:07;100729.94;;;7.11;81.92
6144;BME280;3103;49.492;8.474;2024-02-28T02:38:34;100733.19;;;7.27;81.29
6144;BME280;3103;49.492;8.474;2024-02-28T02:41:01;100732.97;;;7.28;81.36
6144;BME280;3103;49.492;8.474;2024-02-28T02:43:27;100740.38;;;7.33;81.22
6144;BME280;3103;49.492;8.474;2024-02-28T02:45:54;100740.53;;;7.44;80.88
6144;BME280;3103;49.492;8.474;2024-02-28T02:48:21;100734.22;;;7.32;81.06
6144;BME280;3103;49.492;8.474;2024-02-28T02:50:48;100735.66;;;7.35;80.92
6144;BME280;3103;49.492;8.474;2024-02-28T02:53:15;100737.28;;;7.36;80.78
6144;BME280;3103;49.492;8.474;2024-02-28T02:55:42;100744.88;;;7.39;80.73
6144;BME280;3103;49.492;8.474;2024-02-28T02:58:09;100739.97;;;7.36;80.28
6144;BME280;3103;49.492;8.474;2024-02-28T03:00:35;100749.00;;;7.35;80.33
6144;BME280;3103;49.492;8.474;2024-02-28T03:03:02;100737.69;;;7.39;80.41
6144;BME280;3103;49.492;8.474;2024-02-28T03:05:29;100744.91;;;7.26;80.43
6144;BME280;3103;49.492;8.474;2024-02-28T03:07:56;100750.47;;;7.18;81.73
6144;BME280;3103;49.492;8.474;2024-02-28T03:10:23;100749.25;;;7.13;81.42
6144;BME280;3103;49.492;8.474;2024-02-28T03:12:49;100758.94;;;7.08;81.21
6144;BME280;3103;49.492;8.474;2024-02-28T03:15:16;100759.38;;;6.85;81.84
6144;BME280;3103;49.492;8.474;2024-02-28T03:17:43;100754.63;;;6.87;82.19
6144;BME280;3103;49.492;8.474;2024-02-28T03:20:10;100762.84;;;6.99;82.43
6144;BME280;3103;49.492;8.474;2024-02-28T03:22:38;100760.19;;;6.99;81.69
6144;BME280;3103;49.492;8.474;2024-02-28T03:25:05;100765.31;;;6.87;82.46
6144;BME280;3103;49.492;8.474;2024-02-28T03:27:32;100768.44;;;6.77;83.39
6144;BME280;3103;49.492;8.474;2024-02-28T03:29:59;100772.94;;;6.83;83.01
6144;BME280;3103;49.492;8.474;2024-02-28T03:32:28;100773.16;;;6.82;82.25
6144;BME280;3103;49.492;8.474;2024-02-28T03:34:55;100776.66;;;6.76;82.42
6144;BME280;3103;49.492;8.474;2024-02-28T03:37:22;100780.53;;;6.93;82.51
6144;BME280;3103;49.492;8.474;2024-02-28T03:39:48;100775.41;;;6.78;82.48
6144;BME280;3103;49.492;8.474;2024-02-28T03:42:15;100788.13;;;6.43;83.53
6144;BME280;3103;49.492;8.474;2024-02-28T03:44:42;100776.25;;;6.66;83.26
6144;BME280;3103;49.492;8.474;2024-02-28T03:47:10;100781.78;;;6.84;82.33
6144;BME280;3103;49.492;8.474;2024-02-28T03:49:36;100788.56;;;6.80;82.01
6144;BME280;3103;49.492;8.474;2024-02-28T03:52:03;100792.03;;;6.87;81.67
6144;BME280;3103;49.492;8.474;2024-02-28T03:54:32;100788.53;;;6.73;82.36
6144;BME280;3103;49.492;8.474;2024-02-28T03:56:59;100792.25;;;6.85;82.25
6144;BME280;3103;49.492;8.474;2024-02-28T03:59:26;100791.41;;;6.85;81.71
6144;BME280;3103;49.492;8.474;2024-02-28T04:01:53;100788.56;;;6.80;82.13
6144;BME280;3103;49.492;8.474;2024-02-28T04:04:19;100787.75;;;6.79;81.90
6144;BME280;3103;49.492;8.474;2024-02-28T04:06:47;100794.72;;;6.67;82.30
6144;BME280;3103;49.492;8.474;2024-02-28T04:09:14;100797.38;;;6.74;82.57
6144;BME280;3103;49.492;8.474;2024-02-28T04:11:41;100806.84;;;6.70;82.90
6144;BME280;3103;49.492;8.474;2024-02-28T04:14:09;100806.44;;;6.66;82.42
6144;BME280;3103;49.492;8.474;2024-02-28T04:16:41;100812.16;;;6.70;82.43
6144;BME280;3103;49.492;8.474;2024-02-28T04:19:08;100812.78;;;6.59;82.60
6144;BME280;3103;49.492;8.474;2024-02-28T04:21:34;100817.13;;;6.79;81.40
6144;BME280;3103;49.492;8.474;2024-02-28T04:24:01;100825.53;;;6.83;81.70
6144;BME280;3103;49.492;8.474;2024-02-28T04:26:28;100822.22;;;6.88;81.27
6144;BME280;3103;49.492;8.474;2024-02-28T04:28:56;100817.53;;;6.83;81.31
6144;BME280;3103;49.492;8.474;2024-02-28T04:31:23;100828.41;;;6.88;80.83
6144;BME280;3103;49.492;8.474;2024-02-28T04:33:49;100826.75;;;6.74;82.03
6144;BME280;3103;49.492;8.474;2024-02-28T04:36:16;100833.75;;;6.68;82.20
6144;BME280;3103;49.492;8.474;2024-02-28T04:38:43;100830.88;;;6.76;82.14
6144;BME280;3103;49.492;8.474;2024-02-28T04:41:10;100840.31;;;6.72;81.91
6144;BME280;3103;49.492;8.474;2024-02-28T04:43:39;100835.78;;;6.73;82.33
6144;BME280;3103;49.492;8.474;2024-02-28T04:46:06;100841.53;;;6.70;82.38
6144;BME280;3103;49.492;8.474;2024-02-28T04:48:33;100839.91;;;6.69;82.37
6144;BME280;3103;49.492;8.474;2024-02-28T04:51:01;100841.53;;;6.50;82.65
6144;BME280;3103;49.492;8.474;2024-02-28T04:53:29;100843.16;;;6.58;82.89
6144;BME280;3103;49.492;8.474;2024-02-28T04:55:56;100846.88;;;6.57;82.31
6144;BME280;3103;49.492;8.474;2024-02-28T04:58:23;100848.28;;;6.46;82.63
6144;BME280;3103;49.492;8.474;2024-02-28T05:00:50;100847.88;;;6.36;83.42
6144;BME280;3103;49.492;8.474;2024-02-28T05:03:17;100846.03;;;6.36;83.69
6144;BME280;3103;49.492;8.474;2024-02-28T05:05:44;100851.34;;;6.43;83.17
6144;BME280;3103;49.492;8.474;2024-02-28T05:08:10;100853.84;;;6.51;82.71
6144;BME280;3103;49.492;8.474;2024-02-28T05:10:37;100854.25;;;6.54;82.15
6144;BME280;3103;49.492;8.474;2024-02-28T05:13:05;100857.31;;;6.38;82.71
6144;BME280;3103;49.492;8.474;2024-02-28T05:15:32;100860.28;;;6.09;84.02
6144;BME280;3103;49.492;8.474;2024-02-28T05:17:59;100870.41;;;6.20;84.32
6144;BME280;3103;49.492;8.474;2024-02-28T05:20:26;100881.50;;;6.30;84.34
6144;BME280;3103;49.492;8.474;2024-02-28T05:22:53;100880.88;;;6.28;83.54
6144;BME280;3103;49.492;8.474;2024-02-28T05:25:19;100890.28;;;6.17;84.74
6144;BME280;3103;49.492;8.474;2024-02-28T05:27:46;100892.66;;;5.99;85.28
6144;BME280;3103;49.492;8.474;2024-02-28T05:30:13;100899.03;;;6.05;85.70
6144;BME280;3103;49.492;8.474;2024-02-28T05:32:41;100890.41;;;6.03;86.00
6144;BME280;3103;49.492;8.474;2024-02-28T05:35:08;100898.06;;;6.19;85.73
6144;BME280;3103;49.492;8.474;2024-02-28T05:37:38;100897.69;;;6.22;85.08
6144;BME280;3103;49.492;8.474;2024-02-28T05:40:07;100900.13;;;6.10;84.92
6144;BME280;3103;49.492;8.474;2024-02-28T05:42:34;100900.16;;;5.82;86.00
6144;BME280;3103;49.492;8.474;2024-02-28T05:45:01;100899.84;;;5.99;85.33
6144;BME280;3103;49.492;8.474;2024-02-28T05:47:30;100898.22;;;6.04;85.11
6144;BME280;3103;49.492;8.474;2024-02-28T05:49:57;100897.44;;;6.10;84.98
6144;BME280;3103;49.492;8.474;2024-02-28T05:52:25;100898.47;;;6.09;84.93
6144;BME280;3103;49.492;8.474;2024-02-28T05:54:52;100905.03;;;6.07;85.41
6144;BME280;3103;49.492;8.474;2024-02-28T05:57:18;100912.59;;;6.03;85.08
6144;BME280;3103;49.492;8.474;2024-02-28T05:59:45;100909.75;;;6.11;84.49
6144;BME280;3103;49.492;8.474;2024-02-28T06:02:12;100911.66;;;6.24;84.01
6144;BME280;3103;49.492;8.474;2024-02-28T06:04:39;100921.97;;;6.34;83.89
6144;BME280;3103;49.492;8.474;2024-02-28T06:07:06;100924.00;;;6.32;83.50
6144;BME280;3103;49.492;8.474;2024-02-28T06:09:33;100923.97;;;6.25;82.64
6144;BME280;3103;49.492;8.474;2024-02-28T06:11:59;100913.31;;;6.25;82.95
6144;BME280;3103;49.492;8.474;2024-02-28T06:14:28;100921.91;;;6.20;83.63
6144;BME280;3103;49.492;8.474;2024-02-28T06:16:55;100940.34;;;6.09;83.83
6144;BME280;3103;49.492;8.474;2024-02-28T06:19:22;100944.44;;;6.11;83.65
6144;BME280;3103;49.492;8.474;2024-02-28T06:21:50;100947.06;;;6.05;83.66
6144;BME280;3103;49.492;8.474;2024-02-28T06:24:17;100944.78;;;6.02;84.23
6144;BME280;3103;49.492;8.474;2024-02-28T06:26:44;100944.50;;;5.90;84.68
6144;BME280;3103;49.492;8.474;2024-02-28T06:29:15;100951.16;;;6.01;84.61
6144;BME280;3103;49.492;8.474;2024-02-28T06:31:42;100950.31;;;5.93;84.49
6144;BME280;3103;49.492;8.474;2024-02-28T06:34:09;100969.41;;;6.04;83.88
6144;BME280;3103;49.492;8.474;2024-02-28T06:36:40;100974.56;;;6.05;84.45
6144;BME280;3103;49.492;8.474;2024-02-28T06:39:07;100989.50;;;5.93;85.54
6144;BME280;3103;49.492;8.474;2024-02-28T06:41:34;100983.97;;;6.01;84.38
6144;BME280;3103;49.492;8.474;2024-02-28T06:44:01;100983.63;;;5.83;85.45
6144;BME280;3103;49.492;8.474;2024-02-28T06:46:28;100995.53;;;5.80;85.94
6144;BME280;3103;49.492;8.474;2024-02-28T06:48:54;100993.25;;;5.77;86.37
6144;BME280;3103;49.492;8.474;2024-02-28T06:51:22;100990.34;;;6.00;85.77
6144;BME280;3103;49.492;8.474;2024-02-28T06:53:48;100999.03;;;6.09;85.25
6144;BME280;3103;49.492;8.474;2024-02-28T06:56:15;100990.41;;;6.07;84.50
6144;BME280;3103;49.492;8.474;2024-02-28T06:58:42;100989.91;;;5.97;85.51
6144;BME280;3103;49.492;8.474;2024-02-28T07:01:09;100994.34;;;6.17;84.38
6144;BME280;3103;49.492;8.474;2024-02-28T07:03:36;100990.03;;;6.16;84.52
6144;BME280;3103;49.492;8.474;2024-02-28T07:06:04;101000.16;;;6.28;84.30
6144;BME280;3103;49.492;8.474;2024-02-28T07:08:32;100995.00;;;6.26;83.69
6144;BME280;3103;49.492;8.474;2024-02-28T07:10:59;100989.06;;;6.31;82.98
6144;BME280;3103;49.492;8.474;2024-02-28T07:13:26;100994.25;;;6.39;83.36
6144;BME280;3103;49.492;8.474;2024-02-28T07:15:53;100989.28;;;6.29;83.40
6144;BME280;3103;49.492;8.474;2024-02-28T07:18:24;100994.25;;;6.39;83.66
6144;BME280;3103;49.492;8.474;2024-02-28T07:20:56;100996.72;;;6.40;83.33
6144;BME280;3103;49.492;8.474;2024-02-28T07:23:23;101000.84;;;6.43;82.69
6144;BME280;3103;49.492;8.474;2024-02-28T07:25:49;101003.69;;;6.35;83.13
6144;BME280;3103;49.492;8.474;2024-02-28T07:28:16;101006.97;;;6.37;83.14
6144;BME280;3103;49.492;8.474;2024-02-28T07:30:44;101006.59;;;6.46;82.57
6144;BME280;3103;49.492;8.474;2024-02-28T07:33:12;101010.97;;;6.61;81.55
6144;BME280;3103;49.492;8.474;2024-02-28T07:35:49;100997.00;;;6.59;82.54
6144;BME280;3103;49.492;8.474;2024-02-28T07:38:16;101005.25;;;6.70;80.98
6144;BME280;3103;49.492;8.474;2024-02-28T07:40:49;101005.09;;;6.85;80.39
6144;BME280;3103;49.492;8.474;2024-02-28T07:43:16;101004.63;;;6.68;80.34
6144;BME280;3103;49.492;8.474;2024-02-28T07:45:43;101006.94;;;6.78;80.04
6144;BME280;3103;49.492;8.474;2024-02-28T07:48:10;101000.16;;;6.89;79.60
6144;BME280;3103;49.492;8.474;2024-02-28T07:50:37;101002.44;;;6.85;80.20
6144;BME280;3103;49.492;8.474;2024-02-28T07:53:04;101010.94;;;7.15;79.31
6144;BME280;3103;49.492;8.474;2024-02-28T07:55:31;101013.84;;;7.27;77.85
6144;BME280;3103;49.492;8.474;2024-02-28T07:57:58;101016.75;;;7.52;77.37
6144;BME280;3103;49.492;8.474;2024-02-28T08:00:25;101023.34;;;7.62;77.21
6144;BME280;3103;49.492;8.474;2024-02-28T08:02:52;101020.22;;;7.39;77.76
6144;BME280;3103;49.492;8.474;2024-02-28T08:05:19;101020.84;;;7.41;78.26
6144;BME280;3103;49.492;8.474;2024-02-28T08:07:46;101022.47;;;7.29;78.42
6144;BME280;3103;49.492;8.474;2024-02-28T08:10:13;101021.88;;;7.53;77.43
6144;BME280;3103;49.492;8.474;2024-02-28T08:12:40;101030.53;;;7.62;77.15
6144;BME280;3103;49.492;8.474;2024-02-28T08:15:08;101020.66;;;7.76;75.37
6144;BME280;3103;49.492;8.474;2024-02-28T08:17:35;101027.84;;;7.68;76.06
6144;BME280;3103;49.492;8.474;2024-02-28T08:20:03;101021.88;;;7.80;75.44
6144;BME280;3103;49.492;8.474;2024-02-28T08:22:31;101038.53;;;7.68;75.27
6144;BME280;3103;49.492;8.474;2024-02-28T08:24:58;101030.31;;;7.63;75.89
6144;BME280;3103;49.492;8.474;2024-02-28T08:27:25;101029.50;;;7.69;75.89
6144;BME280;3103;49.492;8.474;2024-02-28T08:29:54;101029.72;;;7.74;76.49
6144;BME280;3103;49.492;8.474;2024-02-28T08:32:22;101035.47;;;7.91;76.35
6144;BME280;3103;49.492;8.474;2024-02-28T08:34:49;101034.41;;;7.86;75.77
6144;BME280;3103;49.492;8.474;2024-02-28T08:37:16;101046.75;;;8.00;75.28
6144;BME280;3103;49.492;8.474;2024-02-28T08:39:43;101041.56;;;8.31;73.81
6144;BME280;3103;49.492;8.474;2024-02-28T08:42:11;101048.38;;;8.41;74.31
6144;BME280;3103;49.492;8.474;2024-02-28T08:44:38;101051.28;;;8.19;75.58
6144;BME280;3103;49.492;8.474;2024-02-28T08:47:06;101047.59;;;7.81;76.31
6144;BME280;3103;49.492;8.474;2024-02-28T08:49:35;101059.94;;;8.01;76.15
6144;BME280;3103;49.492;8.474;2024-02-28T08:52:03;101059.53;;;8.18;74.93
6144;BME280;3103;49.492;8.474;2024-02-28T08:54:30;101062.81;;;8.13;75.05
6144;BME280;3103;49.492;8.474;2024-02-28T08:56:57;101064.66;;;8.39;74.02
6144;BME280;3103;49.492;8.474;2024-02-28T08:59:29;101060.72;;;8.42;75.47
6144;BME280;3103;49.492;8.474;2024-02-28T09:01:56;101053.50;;;9.00;74.53
6144;BME280;3103;49.492;8.474;2024-02-28T09:04:23;101062.56;;;8.99;72.32
6144;BME280;3103;49.492;8.474;2024-02-28T09:06:50;101060.72;;;9.00;72.05
6144;BME280;3103;49.492;8.474;2024-02-28T09:09:17;101068.13;;;9.04;72.95
6144;BME280;3103;49.492;8.474;2024-02-28T09:11:43;101080.28;;;9.07;72.09
6144;BME280;3103;49.492;8.474;2024-02-28T09:14:10;101065.59;;;9.16;71.25
6144;BME280;3103;49.492;8.474;2024-02-28T09:16:37;101070.25;;;9.27;70.86
6144;BME280;3103;49.492;8.474;2024-02-28T09:19:05;101077.28;;;9.60;70.74
6144;BME280;3103;49.492;8.474;2024-02-28T09:21:32;101072.09;;;10.15;69.21
6144;BME280;3103;49.492;8.474;2024-02-28T09:23:58;101076.78;;;10.44;66.74
6144;BME280;3103;49.492;8.474;2024-02-28T09:30:39;101087.28;;;12.02;61.51
6144;BME280;3103;49.492;8.474;2024-02-28T09:33:19;101082.91;;;11.89;59.59
6144;BME280;3103;49.492;8.474;2024-02-28T09:35:47;101093.94;;;12.23;59.95
6144;BME280;3103;49.492;8.474;2024-02-28T09:38:14;101102.72;;;13.05;56.91
6144;BME280;3103;49.492;8.474;2024-02-28T09:40:42;101109.66;;;12.14;57.93
6144;BME280;3103;49.492;8.474;2024-02-28T09:43:16;101105.81;;;11.39;60.30
6144;BME280;3103;49.492;8.474;2024-02-28T09:45:46;101101.41;;;10.59;63.55
6144;BME280;3103;49.492;8.474;2024-02-28T09:48:16;101114.03;;;10.77;64.39
6144;BME280;3103;49.492;8.474;2024-02-28T09:50:45;101120.03;;;10.36;65.46
6144;BME280;3103;49.492;8.474;2024-02-28T09:53:12;101116.47;;;9.92;66.77
6144;BME280;3103;49.492;8.474;2024-02-28T09:55:38;101112.75;;;9.93;66.91
6144;BME280;3103;49.492;8.474;2024-02-28T09:58:07;101116.13;;;9.82;67.70
6144;BME280;3103;49.492;8.474;2024-02-28T10:00:35;101112.06;;;9.73;67.75
6144;BME280;3103;49.492;8.474;2024-02-28T10:03:05;101120.44;;;9.58;68.75
6144;BME280;3103;49.492;8.474;2024-02-28T10:05:33;101123.34;;;9.50;69.33
6144;BME280;3103;49.492;8.474;2024-02-28T10:08:00;101121.63;;;9.31;70.44
6144;BME280;3103;49.492;8.474;2024-02-28T10:10:28;101124.63;;;9.47;71.12
6144;BME280;3103;49.492;8.474;2024-02-28T10:12:55;101124.53;;;9.61;71.06
6144;BME280;3103;49.492;8.474;2024-02-28T10:15:22;101125.44;;;9.79;71.06
6144;BME280;3103;49.492;8.474;2024-02-28T10:17:49;101125.88;;;9.76;70.10
6144;BME280;3103;49.492;8.474;2024-02-28T10:20:16;101123.03;;;9.71;69.37
6144;BME280;3103;49.492;8.474;2024-02-28T10:22:43;101126.31;;;9.73;70.33
6144;BME280;3103;49.492;8.474;2024-02-28T10:25:10;101125.78;;;9.90;70.87
6144;BME280;3103;49.492;8.474;2024-02-28T10:27:37;101124.78;;;10.09;69.22
6144;BME280;3103;49.492;8.474;2024-02-28T10:30:04;101129.00;;;10.30;69.09
6144;BME280;3103;49.492;8.474;2024-02-28T10:32:32;101132.03;;;10.08;68.15
6144;BME280;3103;49.492;8.474;2024-02-28T10:35:00;101127.19;;;9.92;68.77
6144;BME280;3103;49.492;8.474;2024-02-28T10:37:30;101134.75;;;10.33;68.79
6144;BME280;3103;49.492;8.474;2024-02-28T10:40:00;101128.25;;;10.41;67.89
6144;BME280;3103;49.492;8.474;2024-02-28T10:42:30;101137.81;;;10.37;67.71
6144;BME280;3103;49.492;8.474;2024-02-28T10:45:01;101130.56;;;10.37;67.09
6144;BME280;3103;49.492;8.474;2024-02-28T10:47:49;101139.16;;;10.46;67.08
6144;BME280;3103;49.492;8.474;2024-02-28T10:50:17;101146.50;;;10.57;67.10
6144;BME280;3103;49.492;8.474;2024-02-28T10:52:44;101151.13;;;10.68;66.27
6144;BME280;3103;49.492;8.474;2024-02-28T10:55:25;101147.38;;;10.26;66.85
6144;BME280;3103;49.492;8.474;2024-02-28T10:58:04;101152.19;;;10.18;67.23
6144;BME280;3103;49.492;8.474;2024-02-28T11:00:36;101149.53;;;10.18;67.59
6144;BME280;3103;49.492;8.474;2024-02-28T11:03:05;101149.53;;;10.43;66.98
6144;BME280;3103;49.492;8.474;2024-02-28T11:05:40;101153.53;;;10.58;66.57
6144;BME280;3103;49.492;8.474;2024-02-28T11:08:11;101147.56;;;10.75;65.60
6144;BME280;3103;49.492;8.474;2024-02-28T11:10:43;101146.81;;;10.86;65.85
6144;BME280;3103;49.492;8.474;2024-02-28T11:13:21;101139.13;;;10.89;65.78
6144;BME280;3103;49.492;8.474;2024-02-28T11:15:48;101134.72;;;11.13;64.76
6144;BME280;3103;49.492;8.474;2024-02-28T11:18:16;101136.06;;;11.04;64.85
6144;BME280;3103;49.492;8.474;2024-02-28T11:20:43;101133.53;;;10.73;65.39
6144;BME280;3103;49.492;8.474;2024-02-28T11:23:13;101125.44;;;10.54;65.46
6144;BME280;3103;49.492;8.474;2024-02-28T11:25:41;101143.06;;;10.68;65.63
6144;BME280;3103;49.492;8.474;2024-02-28T11:28:09;101141.59;;;10.91;64.90
6144;BME280;3103;49.492;8.474;2024-02-28T11:30:36;101141.00;;;10.89;64.12
6144;BME280;3103;49.492;8.474;2024-02-28T11:33:04;101129.19;;;10.72;64.39
6144;BME280;3103;49.492;8.474;2024-02-28T11:35:33;101131.25;;;10.51;65.13
6144;BME280;3103;49.492;8.474;2024-02-28T11:37:59;101125.59;;;10.59;64.92
6144;BME280;3103;49.492;8.474;2024-02-28T11:40:26;101128.47;;;10.39;65.78
6144;BME280;3103;49.492;8.474;2024-02-28T11:42:54;101124.97;;;10.39;65.34
6144;BME280;3103;49.492;8.474;2024-02-28T11:45:21;101128.66;;;10.45;65.65
6144;BME280;3103;49.492;8.474;2024-02-28T11:47:49;101122.88;;;10.41;65.24
6144;BME280;3103;49.492;8.474;2024-02-28T11:50:16;101122.41;;;10.26;65.83
6144;BME280;3103;49.492;8.474;2024-02-28T11:52:45;101117.66;;;10.28;65.48
6144;BME280;3103;49.492;8.474;2024-02-28T11:55:12;101115.13;;;10.51;65.61
6144;BME280;3103;49.492;8.474;2024-02-28T11:57:39;101116.19;;;10.50;64.51
6144;BME280;3103;49.492;8.474;2024-02-28T12:00:08;101111.56;;;10.76;63.53
6144;BME280;3103;49.492;8.474;2024-02-28T12:02:41;101115.78;;;10.28;64.16
6144;BME280;3103;49.492;8.474;2024-02-28T12:05:08;101094.31;;;10.28;64.42
6144;BME280;3103;49.492;8.474;2024-02-28T12:07:36;101091.16;;;10.31;64.49
6144;BME280;3103;49.492;8.474;2024-02-28T12:10:03;101086.47;;;10.20;65.74
6144;BME280;3103;49.492;8.474;2024-02-28T12:12:32;101086.75;;;10.37;64.77
6144;BME280;3103;49.492;8.474;2024-02-28T12:15:00;101083.81;;;10.45;64.38
6144;BME280;3103;49.492;8.474;2024-02-28T12:17:30;101077.69;;;10.56;64.39
6144;BME280;3103;49.492;8.474;2024-02-28T12:20:00;101082.44;;;10.54;64.88
6144;BME280;3103;49.492;8.474;2024-02-28T12:22:29;101080.38;;;10.56;63.96
6144;BME280;3103;49.492;8.474;2024-02-28T12:24:56;101086.25;;;10.47;64.17
6144;BME280;3103;49.492;8.474;2024-02-28T12:27:24;101083.84;;;10.38;65.43
6144;BME280;3103;49.492;8.474;2024-02-28T12:29:51;101080.88;;;10.65;64.41
6144;BME280;3103;49.492;8.474;2024-02-28T12:32:18;101074.00;;;10.69;64.08
6144;BME280;3103;49.492;8.474;2024-02-28T12:34:46;101077.22;;;10.78;63.19
6144;BME280;3103;49.492;8.474;2024-02-28T12:37:13;101073.19;;;10.68;62.53
6144;BME280;3103;49.492;8.474;2024-02-28T12:39:40;101073.63;;;10.65;62.46
6144;BME280;3103;49.492;8.474;2024-02-28T12:42:08;101073.50;;;10.79;61.77
6144;BME280;3103;49.492;8.474;2024-02-28T12:44:35;101076.78;;;10.81;61.36
6144;BME280;3103;49.492;8.474;2024-02-28T12:47:02;101079.34;;;10.57;62.31
6144;BME280;3103;49.492;8.474;2024-02-28T12:49:29;101070.50;;;10.68;61.66
6144;BME280;3103;49.492;8.474;2024-02-28T12:51:56;101068.41;;;10.89;60.39
6144;BME280;3103;49.492;8.474;2024-02-28T12:54:23;101059.69;;;10.75;62.07
6144;BME280;3103;49.492;8.474;2024-02-28T12:56:50;101059.69;;;10.75;62.11
6144;BME280;3103;49.492;8.474;2024-02-28T12:59:17;101053.19;;;10.64;62.96
6144;BME280;3103;49.492;8.474;2024-02-28T13:01:44;101055.41;;;10.67;62.38
6144;BME280;3103;49.492;8.474;2024-02-28T13:04:11;101053.91;;;10.90;61.75
6144;BME280;3103;49.492;8.474;2024-02-28T13:06:38;101057.88;;;10.87;61.47
6144;BME280;3103;49.492;8.474;2024-02-28T13:09:06;101053.31;;;10.69;61.65
6144;BME280;3103;49.492;8.474;2024-02-28T13:11:39;101056.88;;;10.70;61.68
6144;BME280;3103;49.492;8.474;2024-02-28T13:14:06;101055.81;;;10.71;61.02
6144;BME280;3103;49.492;8.474;2024-02-28T13:16:34;101038.47;;;10.67;60.50
6144;BME280;3103;49.492;8.474;2024-02-28T13:19:02;101037.81;;;10.72;60.29
6144;BME280;3103;49.492;8.474;2024-02-28T13:21:31;101033.56;;;10.64;60.76
6144;BME280;3103;49.492;8.474;2024-02-28T13:24:01;101030.66;;;10.65;60.68
6144;BME280;3103;49.492;8.474;2024-02-28T13:26:29;101020.78;;;10.78;60.50